Time;durP1;ratioP1;P1;durP2;ratioP2;P2;SDS_P1;SDS_P2;PMS_P1;PMS_P2;Temp;Humidity;BMP_temperature;BMP_pressure;BME280_temperature;BME280_humidity;BME280_pressure;Samples;Min_cycle;Max_cycle;Signal;HPM_P1;HPM_P2
2021/09/30 04:16:32;;;;;;;0.40;0.40;;;;;;;6.32;96.61;99982.94;5476105;23;20124;-81
2021/09/30 04:18:57;;;;;;;0.60;0.60;;;;;;;6.29;96.88;99982.91;5012955;28;20359;-81
2021/09/30 04:21:22;;;;;;;1.00;1.00;;;;;;;6.15;96.77;99980.06;5012251;28;20030;-81
2021/09/30 04:23:48;;;;;;;0.50;0.50;;;;;;;6.35;98.19;99993.31;5011152;28;20026;-81
2021/09/30 04:26:13;;;;;;;0.43;0.43;;;;;;;6.35;97.29;99992.44;5012353;28;20029;-81
2021/09/30 04:28:38;;;;;;;0.40;0.40;;;;;;;6.29;96.46;99988.06;5002543;28;20022;-81
2021/09/30 04:31:04;;;;;;;0.40;0.40;;;;;;;6.30;96.23;99999.22;4997669;28;20097;-81
2021/09/30 04:33:29;;;;;;;0.40;0.40;;;;;;;6.16;97.70;99996.38;4992028;28;20033;-81
2021/09/30 04:35:55;;;;;;;0.50;0.50;;;;;;;6.11;96.66;100001.44;4993093;28;20066;-81
2021/09/30 04:38:20;;;;;;;0.40;0.40;;;;;;;6.53;97.22;99997.06;4992348;28;20433;-81
2021/09/30 04:40:45;;;;;;;0.50;0.50;;;;;;;6.19;95.13;100001.59;4992352;28;20026;-81
2021/09/30 04:43:11;;;;;;;0.60;0.60;;;;;;;6.08;96.15;100003.06;4996368;28;20054;-81
2021/09/30 04:45:36;;;;;;;0.40;0.40;;;;;;;5.98;96.29;99998.56;4996510;28;20030;-81
2021/09/30 04:48:01;;;;;;;0.50;0.50;;;;;;;5.91;97.21;100003.59;4997722;28;20030;-79
2021/09/30 04:50:28;;;;;;;0.65;0.65;;;;;;;5.81;96.77;100000.78;4993246;28;20045;-80
2021/09/30 04:52:58;;;;;;;0.40;0.40;;;;;;;5.68;97.31;99997.94;4995515;28;20383;-80
2021/09/30 04:55:23;;;;;;;0.40;0.40;;;;;;;5.63;97.48;100001.25;4992554;28;20022;-79
2021/09/30 04:57:48;;;;;;;0.40;0.40;;;;;;;5.59;97.77;99996.88;4994405;28;20069;-79
2021/09/30 05:00:14;;;;;;;0.50;0.50;;;;;;;5.62;98.47;99991.81;4991903;28;20030;-79
2021/09/30 05:02:40;;;;;;;0.40;0.40;;;;;;;5.60;98.49;99994.31;4996581;28;20014;-79
2021/09/30 05:05:05;;;;;;;0.70;0.70;;;;;;;5.74;98.60;99989.47;4997546;28;20030;-79
2021/09/30 05:07:31;;;;;;;0.50;0.50;;;;;;;5.80;98.20;99997.34;4998775;28;20418;-79
2021/09/30 05:09:58;;;;;;;0.40;0.40;;;;;;;5.83;98.10;99997.38;4999161;28;20035;-79
2021/09/30 05:12:24;;;;;;;0.47;0.47;;;;;;;5.68;97.91;100000.50;4993958;28;20026;-79
2021/09/30 05:14:50;;;;;;;0.52;0.52;;;;;;;5.96;99.13;99997.69;5003870;28;20398;-79
2021/09/30 05:17:15;;;;;;;0.70;0.70;;;;;;;6.09;99.57;99992.81;5001171;28;20026;-79
2021/09/30 05:19:40;;;;;;;0.50;0.50;;;;;;;6.09;98.30;100000.53;4996054;28;20033;-79
2021/09/30 05:22:06;;;;;;;0.40;0.40;;;;;;;6.01;97.27;100006.38;4999472;28;20054;-79
2021/09/30 05:24:31;;;;;;;0.55;0.55;;;;;;;5.98;97.01;100003.72;5004934;28;20036;-79
2021/09/30 05:26:56;;;;;;;0.47;0.47;;;;;;;5.88;97.10;100013.78;4996687;28;20105;-79
2021/09/30 05:29:22;;;;;;;0.82;0.77;;;;;;;5.89;97.16;100012.94;4999812;28;20468;-79
2021/09/30 05:31:47;;;;;;;0.40;0.40;;;;;;;5.81;96.87;100022.22;4998940;28;20026;-79
2021/09/30 05:34:14;;;;;;;0.40;0.40;;;;;;;5.60;96.96;100014.03;5001066;28;20026;-79
2021/09/30 05:36:39;;;;;;;0.40;0.40;;;;;;;5.64;97.37;100015.84;4998196;28;20068;-79
2021/09/30 05:39:04;;;;;;;0.65;0.65;;;;;;;5.59;97.73;100026.03;4996808;28;20426;-79
2021/09/30 05:41:32;;;;;;;0.50;0.50;;;;;;;5.59;97.82;100027.72;4996424;28;20026;-79
2021/09/30 05:44:04;;;;;;;0.60;0.60;;;;;;;5.61;97.72;100034.66;4998847;28;20021;-79
2021/09/30 05:47:02;;;;;;;0.40;0.40;;;;;;;6.00;96.76;100036.38;4999542;28;20026;-79
2021/09/30 05:49:22;;;;;;;0.50;0.50;;;;;;;6.86;91.16;100036.25;4995710;28;20038;-80
2021/09/30 05:51:48;;;;;;;0.80;0.80;;;;;;;7.63;87.35;100028.00;4998492;28;20030;-80
2021/09/30 05:54:13;;;;;;;0.57;0.57;;;;;;;8.22;83.89;100037.41;5000169;28;20018;-80
2021/09/30 05:56:38;;;;;;;0.63;0.63;;;;;;;8.85;81.00;100030.31;5007792;28;20403;-79
2021/09/30 05:59:04;;;;;;;0.50;0.50;;;;;;;8.40;80.01;100036.75;4997327;28;20105;-80
2021/09/30 06:10:11;;;;;;;0.90;0.88;;;;;;;10.22;73.42;100025.16;5003236;28;20442;-80
2021/09/30 06:12:30;;;;;;;0.55;0.55;;;;;;;10.66;70.29;100027.03;4996058;28;20108;-79
2021/09/30 06:14:55;;;;;;;0.38;0.38;;;;;;;11.02;70.12;100024.50;5002807;28;20080;-80
2021/09/30 06:17:21;;;;;;;0.30;0.30;;;;;;;9.65;73.89;100031.78;4996776;28;20034;-79
2021/09/30 06:19:46;;;;;;;0.38;0.38;;;;;;;9.97;75.00;100030.25;4999077;28;20037;-80
2021/09/30 06:22:12;;;;;;;0.57;0.57;;;;;;;9.67;75.89;100024.88;5002126;28;20045;-80
2021/09/30 06:24:38;;;;;;;0.20;0.20;;;;;;;9.12;78.24;100030.56;5005706;28;20053;-80
2021/09/30 06:27:04;;;;;;;0.50;0.50;;;;;;;8.75;79.03;100047.44;4995685;28;20023;-80
2021/09/30 06:29:31;;;;;;;0.30;0.30;;;;;;;8.81;80.02;100044.94;4999524;28;20085;-79
2021/09/30 06:31:57;;;;;;;0.82;0.82;;;;;;;8.22;83.32;100052.88;4996327;28;20466;-80
2021/09/30 06:34:22;;;;;;;0.63;0.63;;;;;;;8.41;83.87;100049.69;5005461;28;20108;-79
2021/09/30 06:36:48;;;;;;;0.50;0.50;;;;;;;8.02;84.52;100054.34;4999601;28;20478;-79
2021/09/30 06:39:13;;;;;;;0.47;0.47;;;;;;;7.84;86.33;100060.13;5005904;28;20364;-79
2021/09/30 06:41:38;;;;;;;0.35;0.35;;;;;;;7.80;86.29;100048.91;4999012;28;20372;-79
2021/09/30 06:44:04;;;;;;;0.57;0.52;;;;;;;7.64;87.90;100059.81;5002735;28;20156;-79
2021/09/30 06:46:29;;;;;;;0.40;0.40;;;;;;;7.66;87.78;100060.75;5002156;28;20116;-79
2021/09/30 06:48:55;;;;;;;1.00;0.95;;;;;;;7.98;88.99;100053.44;5000781;28;20025;-79
2021/09/30 06:51:20;;;;;;;1.30;1.20;;;;;;;8.19;87.91;100052.84;5005931;28;20480;-79
2021/09/30 06:53:46;;;;;;;0.50;0.50;;;;;;;8.06;87.65;100048.38;4994643;28;20109;-79
2021/09/30 06:56:15;;;;;;;0.50;0.50;;;;;;;8.28;86.19;100047.78;5001415;28;20097;-79
2021/09/30 06:58:44;;;;;;;0.63;0.63;;;;;;;7.97;86.91;100054.28;4994250;28;20077;-79
2021/09/30 07:01:11;;;;;;;0.52;0.52;;;;;;;7.89;87.89;100051.59;5000685;28;20096;-79
2021/09/30 07:03:36;;;;;;;0.50;0.50;;;;;;;7.96;88.89;100048.25;5000897;28;20041;-79
2021/09/30 07:06:02;;;;;;;0.80;0.80;;;;;;;8.25;87.96;100047.75;5003370;28;20021;-79
2021/09/30 07:08:28;;;;;;;0.45;0.45;;;;;;;8.60;85.61;100047.28;5003140;28;20017;-79
2021/09/30 07:10:53;;;;;;;0.85;0.85;;;;;;;8.66;84.63;100057.72;4999469;28;20486;-79
2021/09/30 07:13:19;;;;;;;0.80;0.80;;;;;;;8.61;85.50;100052.50;5002413;28;20467;-79
2021/09/30 07:15:44;;;;;;;1.15;0.73;;;;;;;8.48;86.00;100056.66;4998704;28;20395;-79
2021/09/30 07:18:12;;;;;;;0.50;0.50;;;;;;;8.46;86.38;100058.38;4994711;28;20030;-79
2021/09/30 07:20:37;;;;;;;0.50;0.50;;;;;;;8.50;86.24;100059.25;4996678;28;20438;-80
2021/09/30 07:23:02;;;;;;;0.40;0.40;;;;;;;8.70;85.44;100057.75;4998474;28;20041;-79
2021/09/30 07:25:28;;;;;;;0.40;0.40;;;;;;;9.02;85.39;100059.78;4999849;28;20041;-79
2021/09/30 07:27:53;;;;;;;0.40;0.40;;;;;;;9.15;84.74;100060.75;5003966;28;20072;-79
2021/09/30 07:30:18;;;;;;;0.40;0.40;;;;;;;9.27;84.39;100058.25;4996568;28;20021;-79
2021/09/30 07:32:44;;;;;;;1.00;0.70;;;;;;;9.44;84.20;100059.25;4997127;28;20034;-79
2021/09/30 07:35:09;;;;;;;1.20;1.10;;;;;;;9.44;83.91;100069.59;5001238;28;20034;-79
2021/09/30 07:37:35;;;;;;;0.50;0.50;;;;;;;9.70;82.98;100071.50;5005853;28;20509;-80
2021/09/30 07:40:01;;;;;;;0.57;0.57;;;;;;;9.80;82.45;100057.75;4993729;28;20058;-80
2021/09/30 07:42:27;;;;;;;0.40;0.40;;;;;;;9.91;81.91;100063.88;5000700;28;20491;-80
2021/09/30 07:44:52;;;;;;;0.40;0.40;;;;;;;10.24;81.36;100059.72;4991637;28;20121;-79
2021/09/30 07:47:18;;;;;;;0.50;0.50;;;;;;;10.37;81.26;100066.69;5003483;28;20499;-80
2021/09/30 07:49:43;;;;;;;0.50;0.50;;;;;;;10.40;78.94;100060.69;5001797;28;20058;-79
2021/09/30 07:52:08;;;;;;;0.40;0.40;;;;;;;10.86;78.80;100066.81;4999086;28;20022;-79
2021/09/30 07:54:34;;;;;;;0.63;0.55;;;;;;;11.17;73.76;100056.47;4982997;28;20034;-79
2021/09/30 07:56:59;;;;;;;0.40;0.40;;;;;;;11.48;73.88;100063.38;4996036;28;20081;-79
2021/09/30 07:59:26;;;;;;;0.75;0.75;;;;;;;11.83;72.90;100067.69;5002382;28;20144;-79
2021/09/30 08:01:52;;;;;;;0.50;0.50;;;;;;;12.09;70.59;100067.63;4994286;28;20022;-80
2021/09/30 08:04:17;;;;;;;0.45;0.45;;;;;;;12.88;66.18;100068.09;5000572;28;20022;-79
2021/09/30 08:06:42;;;;;;;0.22;0.22;;;;;;;15.36;56.92;100053.06;4997243;28;20033;-80
2021/09/30 08:09:08;;;;;;;0.32;0.32;;;;;;;16.66;53.26;100054.03;4995361;28;20029;-80
2021/09/30 08:11:33;;;;;;;0.68;0.68;;;;;;;20.70;43.62;100041.78;4997233;28;20034;-80
2021/09/30 08:13:59;;;;;;;0.20;0.20;;;;;;;23.37;37.30;100035.19;5003471;28;20034;-80
2021/09/30 08:16:26;;;;;;;0.10;0.10;;;;;;;24.84;34.39;100039.66;4997467;28;20125;-80
2021/09/30 08:18:52;;;;;;;0.10;0.10;;;;;;;25.87;32.03;100041.66;5000213;28;20018;-80
2021/09/30 08:21:17;;;;;;;0.10;0.10;;;;;;;20.96;39.87;100053.91;5005579;28;20025;-80
2021/09/30 08:23:44;;;;;;;0.28;0.28;;;;;;;24.22;35.18;100040.44;5004202;28;20032;-80
2021/09/30 08:26:10;;;;;;;0.20;0.20;;;;;;;24.65;32.55;100038.97;4998424;28;20168;-80
2021/09/30 08:28:37;;;;;;;0.30;0.30;;;;;;;23.13;35.23;100043.41;5001700;28;20100;-80
2021/09/30 08:31:03;;;;;;;0.30;0.28;;;;;;;20.37;40.41;100053.56;4998354;28;20112;-80
2021/09/30 08:33:28;;;;;;;0.10;0.10;;;;;;;20.17;41.77;100042.00;5002186;28;20018;-80
2021/09/30 08:35:54;;;;;;;0.20;0.20;;;;;;;21.30;38.75;100042.84;5002760;28;20021;-80
2021/09/30 08:38:19;;;;;;;0.10;0.10;;;;;;;23.40;35.06;100040.31;5000122;28;20199;-80
2021/09/30 08:40:46;;;;;;;0.47;0.47;;;;;;;22.91;36.27;100034.81;5007799;28;20057;-80
2021/09/30 08:43:12;;;;;;;0.10;0.10;;;;;;;26.13;32.38;100026.75;5001607;28;20389;-80
2021/09/30 08:45:37;;;;;;;0.00;0.00;;;;;;;26.35;30.54;100027.13;5000638;28;20105;-80
2021/09/30 08:48:05;;;;;;;0.00;0.00;;;;;;;27.12;28.62;100024.88;4997407;28;20109;-80
2021/09/30 08:50:33;;;;;;;1.70;0.40;;;;;;;25.46;30.63;100029.03;4978506;28;20022;-80
2021/09/30 08:53:00;;;;;;;0.15;0.15;;;;;;;24.68;30.66;100028.22;4996594;28;20116;-80
2021/09/30 08:55:26;;;;;;;0.10;0.10;;;;;;;28.42;26.45;100016.75;4996771;28;20022;-80
2021/09/30 08:57:52;;;;;;;1.30;0.40;;;;;;;27.33;27.19;100023.44;4999952;28;20025;-80
2021/09/30 09:00:20;;;;;;;0.43;0.30;;;;;;;25.81;30.32;100018.97;4998101;28;20038;-80
2021/09/30 09:02:47;;;;;;;0.43;0.43;;;;;;;27.12;26.87;100017.72;4996196;28;20088;-80
2021/09/30 09:05:14;;;;;;;0.22;0.22;;;;;;;27.00;28.27;100017.69;4999871;28;20109;-80
2021/09/30 09:07:50;;;;;;;0.13;0.13;;;;;;;25.23;29.71;100030.38;5003374;28;20018;-81
2021/09/30 09:10:16;;;;;;;0.50;0.30;;;;;;;22.81;33.53;100027.28;4996869;28;20030;-80
2021/09/30 09:12:41;;;;;;;0.22;0.22;;;;;;;21.08;37.40;100030.59;5004942;28;20032;-80
2021/09/30 09:15:07;;;;;;;0.20;0.20;;;;;;;20.83;37.86;100030.72;5000826;28;20113;-80
2021/09/30 09:17:32;;;;;;;0.10;0.10;;;;;;;21.01;37.80;100024.72;4998590;28;20018;-80
2021/09/30 09:20:02;;;;;;;0.28;0.20;;;;;;;19.50;39.86;100023.34;4998494;28;20430;-80
2021/09/30 09:22:36;;;;;;;0.30;0.30;;;;;;;18.46;42.00;100026.66;5000655;28;20026;-80
2021/09/30 09:25:07;;;;;;;0.45;0.30;;;;;;;17.49;43.37;100028.47;5004453;28;20030;-80
2021/09/30 09:27:54;;;;;;;0.30;0.30;;;;;;;17.16;45.72;100023.22;5004735;28;20017;-80
2021/09/30 09:30:34;;;;;;;0.22;0.22;;;;;;;16.28;47.78;100031.31;4969905;28;20046;-80
2021/09/30 09:33:10;;;;;;;0.20;0.20;;;;;;;15.54;49.12;100031.84;4983797;28;20023;-80
2021/09/30 09:35:45;;;;;;;0.40;0.40;;;;;;;15.82;48.50;100040.09;4976686;28;20030;-80
2021/09/30 09:38:12;;;;;;;0.20;0.20;;;;;;;15.61;50.54;100038.69;4976567;28;20035;-78
2021/09/30 09:40:37;;;;;;;0.20;0.20;;;;;;;15.40;48.62;100036.47;4981980;28;20109;-80
2021/09/30 09:43:39;;;;;;;0.20;0.20;;;;;;;16.37;48.38;100035.47;4983827;28;20492;-80
2021/09/30 09:46:06;;;;;;;4.50;1.58;;;;;;;17.65;44.37;100019.34;4977260;28;20391;-80
2021/09/30 09:48:33;;;;;;;0.10;0.10;;;;;;;17.59;44.80;100021.25;4978909;28;20022;-78
2021/09/30 09:51:01;;;;;;;0.82;0.47;;;;;;;17.38;45.37;100022.66;4978789;28;20030;-78
2021/09/30 09:53:30;;;;;;;1.15;0.95;;;;;;;17.94;42.58;100015.09;4982242;28;20502;-79
2021/09/30 09:56:17;;;;;;;0.47;0.47;;;;;;;17.69;44.15;100018.31;4978409;28;20038;-80
2021/09/30 09:58:48;;;;;;;0.10;0.10;;;;;;;18.16;42.30;100013.53;4976557;28;20030;-80
2021/09/30 10:01:14;;;;;;;0.10;0.10;;;;;;;19.97;38.00;99997.16;4974954;28;20026;-80
2021/09/30 10:03:52;;;;;;;0.10;0.10;;;;;;;20.90;37.66;100005.88;4981944;28;20038;-80
2021/09/30 10:06:18;;;;;;;0.65;0.10;;;;;;;19.93;38.70;100000.81;4984540;28;20062;-80
2021/09/30 10:08:44;;;;;;;0.15;0.10;;;;;;;19.33;39.73;99996.75;4986701;28;20105;-80
2021/09/30 10:11:10;;;;;;;0.13;0.13;;;;;;;22.47;32.14;99990.19;4976282;28;20030;-79
2021/09/30 10:13:37;;;;;;;0.17;0.17;;;;;;;22.62;32.04;99984.19;4975739;28;20117;-80
2021/09/30 10:16:04;;;;;;;0.10;0.10;;;;;;;21.33;33.97;99985.66;4974486;28;20034;-80
2021/09/30 10:18:29;;;;;;;0.17;0.17;;;;;;;21.39;36.57;99988.03;4978068;28;20030;-80
2021/09/30 10:20:57;;;;;;;0.60;0.57;;;;;;;21.63;32.35;99981.69;4974736;28;20027;-80
2021/09/30 10:23:25;;;;;;;0.17;0.17;;;;;;;22.46;31.66;99976.13;4987048;28;20026;-79
2021/09/30 10:25:56;;;;;;;0.15;0.15;;;;;;;22.93;31.26;99966.88;4974477;28;20057;-79
2021/09/30 10:28:24;;;;;;;0.10;0.10;;;;;;;21.89;33.29;99966.47;4975373;28;20054;-80
2021/09/30 10:30:54;;;;;;;0.10;0.10;;;;;;;23.41;28.77;99967.97;4981025;28;20038;-73
2021/09/30 10:33:37;;;;;;;0.10;0.10;;;;;;;26.16;25.55;99952.19;4986154;28;20019;-73
2021/09/30 10:36:03;;;;;;;1.08;0.40;;;;;;;28.56;22.52;99957.06;4975266;28;20027;-73
2021/09/30 10:38:31;;;;;;;0.15;0.10;;;;;;;23.05;28.98;99960.94;4976097;28;20480;-73
2021/09/30 10:40:59;;;;;;;0.08;0.08;;;;;;;26.05;24.86;99949.34;4979245;28;20019;-73
2021/09/30 10:43:26;;;;;;;0.00;0.00;;;;;;;25.98;24.55;99953.34;4979631;28;20042;-73
2021/09/30 10:45:51;;;;;;;0.17;0.15;;;;;;;25.75;25.63;99952.09;4979573;28;20084;-73
2021/09/30 10:48:23;;;;;;;0.00;0.00;;;;;;;25.33;25.89;99941.31;4979616;28;20503;-74
2021/09/30 10:50:52;;;;;;;0.82;0.50;;;;;;;25.64;25.46;99944.78;4976322;28;20063;-73
2021/09/30 10:53:17;;;;;;;0.00;0.00;;;;;;;25.45;25.32;99945.06;4980399;28;20015;-73
2021/09/30 10:55:43;;;;;;;0.20;0.20;;;;;;;27.05;24.41;99935.75;4986215;28;20049;-72
2021/09/30 10:58:24;;;;;;;0.13;0.10;;;;;;;27.09;24.44;99938.13;4975549;28;20488;-72
2021/09/30 11:00:57;;;;;;;0.10;0.10;;;;;;;26.82;24.47;99940.78;4975033;28;20026;-72
2021/09/30 11:03:24;;;;;;;0.03;0.03;;;;;;;25.12;26.27;99934.66;4978439;28;20392;-73
2021/09/30 11:06:15;;;;;;;0.10;0.10;;;;;;;24.22;28.24;99945.09;4978658;28;20030;-73
2021/09/30 11:08:43;;;;;;;0.00;0.00;;;;;;;22.61;28.37;99934.06;4983296;28;20022;-72
2021/09/30 11:11:09;;;;;;;0.60;0.60;;;;;;;21.34;30.72;99942.56;4973947;28;20033;-73
2021/09/30 11:13:37;;;;;;;0.10;0.10;;;;;;;22.56;28.45;99931.63;4980627;28;20062;-73
2021/09/30 11:16:02;;;;;;;0.52;0.20;;;;;;;24.75;25.89;99928.81;4974529;28;20105;-73
2021/09/30 11:18:43;;;;;;;0.00;0.00;;;;;;;27.16;23.26;99925.25;4980930;28;20102;-73
2021/09/30 11:24:18;;;;;;;0.00;0.00;;;;;;;27.37;23.49;99915.81;4976127;28;20452;-73
2021/09/30 11:26:51;;;;;;;0.55;0.15;;;;;;;22.73;27.05;99928.19;4973387;28;20476;-73
2021/09/30 11:29:19;;;;;;;0.08;0.08;;;;;;;23.04;27.33;99923.09;4974792;28;20021;-72
2021/09/30 11:31:46;;;;;;;0.20;0.10;;;;;;;25.49;25.71;99914.72;4978828;28;20530;-73
2021/09/30 11:34:19;;;;;;;0.25;0.13;;;;;;;27.51;23.29;99906.84;4976555;28;20444;-73
2021/09/30 11:36:45;;;;;;;0.75;0.75;;;;;;;27.04;23.51;99907.44;4976854;28;20038;-73
2021/09/30 11:39:10;;;;;;;0.00;0.00;;;;;;;23.99;26.42;99912.81;4984255;28;20022;-73
2021/09/30 11:41:39;;;;;;;0.10;0.10;;;;;;;23.75;26.27;99909.69;4987493;28;20375;-73
2021/09/30 11:44:05;;;;;;;0.10;0.10;;;;;;;24.43;26.42;99911.28;4978625;28;20054;-73
2021/09/30 11:46:32;;;;;;;4.78;0.80;;;;;;;25.10;26.75;99899.44;4986029;28;20069;-73
2021/09/30 11:49:00;;;;;;;0.00;0.00;;;;;;;24.16;27.24;99906.56;4974143;28;20014;-73
2021/09/30 11:51:32;;;;;;;0.20;0.20;;;;;;;25.59;24.60;99897.28;4977510;28;20082;-73
2021/09/30 11:53:58;;;;;;;0.00;0.00;;;;;;;25.14;24.90;99887.66;4976297;28;20427;-72
2021/09/30 11:56:23;;;;;;;0.38;0.30;;;;;;;23.51;26.49;99895.13;4982903;28;20033;-73
2021/09/30 11:59:05;;;;;;;4.45;0.93;;;;;;;23.16;26.97;99892.53;4974090;28;20429;-73
2021/09/30 12:01:36;;;;;;;0.10;0.10;;;;;;;21.69;30.31;99886.44;4974497;28;20055;-73
2021/09/30 12:04:06;;;;;;;0.10;0.10;;;;;;;21.02;29.24;99879.72;4979486;28;20030;-73
2021/09/30 12:06:46;;;;;;;0.20;0.20;;;;;;;19.34;33.73;99890.72;4982111;28;20026;-73
2021/09/30 12:09:14;;;;;;;0.00;0.00;;;;;;;19.43;35.24;99879.88;4987325;28;20039;-72
2021/09/30 12:11:50;;;;;;;0.30;0.30;;;;;;;19.32;33.23;99882.03;4975601;28;20380;-72
2021/09/30 12:14:18;;;;;;;0.10;0.10;;;;;;;18.91;33.50;99881.75;4977931;28;20027;-73
2021/09/30 12:17:00;;;;;;;0.10;0.10;;;;;;;18.22;34.81;99871.69;4978310;28;20026;-72
2021/09/30 12:19:53;;;;;;;3.40;0.70;;;;;;;15.78;37.99;99883.38;4975619;28;20022;-72
2021/09/30 12:22:34;;;;;;;0.93;0.43;;;;;;;16.39;37.87;99876.72;4975805;28;20025;-72
2021/09/30 12:25:07;;;;;;;0.20;0.20;;;;;;;16.12;37.44;99868.66;4979205;28;20691;-72
2021/09/30 12:27:35;;;;;;;0.75;0.35;;;;;;;17.06;38.46;99861.97;4972829;28;20027;-73
2021/09/30 12:30:08;;;;;;;3.40;1.55;;;;;;;18.18;36.06;99859.59;4977257;28;20041;-73
2021/09/30 12:32:36;;;;;;;0.10;0.10;;;;;;;18.55;34.41;99853.13;4980815;28;20066;-72
2021/09/30 12:35:06;;;;;;;0.20;0.20;;;;;;;18.29;34.78;99850.53;4973622;28;20027;-73
2021/09/30 12:37:40;;;;;;;0.15;0.15;;;;;;;18.05;36.74;99847.75;4974584;28;20045;-73
2021/09/30 12:40:14;;;;;;;0.20;0.20;;;;;;;17.57;37.70;99850.94;4979131;28;20151;-73
2021/09/30 12:43:05;;;;;;;0.20;0.20;;;;;;;17.37;38.15;99859.38;4974613;28;20026;-72
2021/09/30 12:45:33;;;;;;;6.30;1.98;;;;;;;17.38;37.16;99849.75;4979202;28;20145;-72
2021/09/30 12:48:08;;;;;;;0.13;0.13;;;;;;;16.92;37.61;99848.38;4973945;28;20023;-72
2021/09/30 12:50:58;;;;;;;0.20;0.20;;;;;;;17.00;37.26;99842.94;4978115;28;20026;-73
2021/09/30 12:53:25;;;;;;;1.98;0.50;;;;;;;17.39;37.10;99835.75;4980997;28;20022;-72
2021/09/30 12:56:01;;;;;;;0.17;0.17;;;;;;;17.70;36.21;99836.56;4982236;28;20031;-72
2021/09/30 12:58:35;;;;;;;0.20;0.20;;;;;;;16.93;36.99;99831.78;4978369;28;21829;-72
2021/09/30 13:01:21;;;;;;;0.15;0.15;;;;;;;16.89;37.80;99822.31;4977763;28;20037;-72
2021/09/30 13:04:08;;;;;;;0.20;0.20;;;;;;;17.60;36.48;99814.16;4981652;28;20029;-72
2021/09/30 13:06:34;;;;;;;0.10;0.10;;;;;;;17.27;36.70;99815.16;4979548;28;20502;-72
2021/09/30 13:08:59;;;;;;;0.20;0.20;;;;;;;17.63;38.10;99806.19;4987257;28;20022;-72
2021/09/30 13:11:31;;;;;;;0.20;0.20;;;;;;;17.54;38.02;99800.34;4979391;28;20068;-72
2021/09/30 13:14:14;;;;;;;0.30;0.30;;;;;;;17.85;36.00;99802.97;4984218;28;20077;-72
2021/09/30 13:16:44;;;;;;;0.10;0.10;;;;;;;17.99;37.32;99803.38;4988409;28;20034;-72
2021/09/30 13:19:10;;;;;;;0.10;0.10;;;;;;;18.05;35.97;99799.69;4981208;28;20066;-72
2021/09/30 13:21:55;;;;;;;0.10;0.10;;;;;;;17.58;36.56;99784.50;4986079;28;20419;-72
2021/09/30 13:24:21;;;;;;;1.13;0.55;;;;;;;17.60;36.47;99793.19;4979061;28;20023;-72
2021/09/30 13:26:46;;;;;;;0.70;0.20;;;;;;;17.26;35.92;99792.44;4977606;28;20030;-73
2021/09/30 13:29:11;;;;;;;0.28;0.28;;;;;;;17.26;36.79;99792.44;4984334;28;20480;-72
2021/09/30 13:31:37;;;;;;;0.50;0.50;;;;;;;17.03;36.27;99785.28;4982730;28;20116;-72
2021/09/30 13:34:02;;;;;;;1.15;0.70;;;;;;;17.20;35.48;99794.34;4978936;28;20089;-72
2021/09/30 13:36:28;;;;;;;2.65;2.00;;;;;;;17.46;34.83;99779.66;4980044;28;20046;-72
2021/09/30 13:38:53;;;;;;;8.52;3.13;;;;;;;17.15;35.34;99780.53;4980859;28;20022;-72
2021/09/30 13:41:18;;;;;;;1.92;0.70;;;;;;;17.61;35.03;99778.31;4982292;28;20023;-72
2021/09/30 13:43:44;;;;;;;0.20;0.20;;;;;;;17.50;34.13;99776.00;4977590;28;20030;-72
2021/09/30 13:46:09;;;;;;;1.65;0.77;;;;;;;17.52;35.38;99778.59;4985171;28;20116;-72
2021/09/30 13:48:34;;;;;;;0.43;0.17;;;;;;;17.33;36.25;99773.03;4980194;28;20065;-72
2021/09/30 13:50:59;;;;;;;0.10;0.10;;;;;;;17.37;34.66;99770.28;4980359;28;20031;-72
2021/09/30 13:53:25;;;;;;;0.80;0.28;;;;;;;17.00;35.25;99767.00;4978476;28;20514;-72
2021/09/30 13:55:50;;;;;;;0.10;0.10;;;;;;;16.99;34.41;99763.53;4982718;28;20511;-72
2021/09/30 13:58:15;;;;;;;0.20;0.20;;;;;;;16.72;35.67;99764.28;4976048;28;20022;-72
2021/09/30 14:00:41;;;;;;;4.05;1.95;;;;;;;17.00;36.43;99767.88;4978455;28;20460;-72
2021/09/30 14:03:07;;;;;;;0.63;0.63;;;;;;;16.94;37.20;99775.91;4980590;28;20019;-72
2021/09/30 14:05:32;;;;;;;0.10;0.10;;;;;;;16.99;35.80;99768.78;4977569;28;20110;-72
2021/09/30 14:07:58;;;;;;;0.17;0.17;;;;;;;16.95;36.36;99765.38;4984248;28;20197;-72
2021/09/30 14:10:24;;;;;;;0.15;0.15;;;;;;;17.13;35.18;99771.88;4977611;28;20054;-72
2021/09/30 14:12:49;;;;;;;0.20;0.20;;;;;;;17.07;35.08;99761.56;4975186;28;20400;-72
2021/09/30 14:15:15;;;;;;;0.20;0.20;;;;;;;17.17;35.98;99760.41;4977254;28;20029;-77
2021/09/30 14:17:40;;;;;;;0.20;0.20;;;;;;;17.34;36.12;99759.03;4980771;28;20104;-77
2021/09/30 14:20:07;;;;;;;0.10;0.10;;;;;;;17.43;36.73;99756.16;4977291;28;20045;-77
2021/09/30 14:22:32;;;;;;;0.10;0.10;;;;;;;16.96;36.16;99759.22;4978125;28;20038;-77
2021/09/30 14:24:57;;;;;;;4.20;1.35;;;;;;;16.99;35.65;99753.06;4979371;28;20031;-77
2021/09/30 14:27:24;;;;;;;0.70;0.25;;;;;;;16.94;36.18;99744.50;4974562;28;20105;-77
2021/09/30 14:29:49;;;;;;;3.00;1.10;;;;;;;17.29;36.89;99739.97;4983599;28;20058;-77
2021/09/30 14:32:15;;;;;;;0.10;0.10;;;;;;;17.39;34.72;99738.78;4984684;28;20561;-77
2021/09/30 14:34:41;;;;;;;0.20;0.20;;;;;;;17.36;36.60;99741.53;4977243;28;20487;-77
2021/09/30 14:37:07;;;;;;;0.55;0.55;;;;;;;17.32;34.54;99739.91;4976760;28;20027;-77
2021/09/30 14:39:32;;;;;;;2.25;0.60;;;;;;;16.98;34.56;99740.88;4977553;28;20030;-77
2021/09/30 14:41:58;;;;;;;0.32;0.20;;;;;;;16.79;36.20;99739.69;4974382;28;20027;-77
2021/09/30 14:44:24;;;;;;;0.20;0.20;;;;;;;17.07;36.47;99734.53;4983389;28;20028;-77
2021/09/30 14:46:52;;;;;;;0.10;0.10;;;;;;;17.02;36.83;99736.41;4985910;28;20029;-77
2021/09/30 14:49:17;;;;;;;1.40;0.90;;;;;;;16.87;35.20;99740.31;4974307;28;20042;-77
2021/09/30 14:51:43;;;;;;;0.20;0.20;;;;;;;16.79;35.63;99734.47;4978340;28;20582;-77
2021/09/30 14:54:08;;;;;;;0.17;0.17;;;;;;;16.51;35.99;99737.78;4985897;28;20027;-77
2021/09/30 14:56:33;;;;;;;0.10;0.10;;;;;;;16.50;35.38;99737.84;4977643;28;20026;-77
2021/09/30 14:58:59;;;;;;;0.20;0.20;;;;;;;16.36;35.50;99735.56;4979286;28;20038;-77
2021/09/30 15:01:24;;;;;;;0.20;0.20;;;;;;;16.68;35.49;99727.72;4981370;28;20498;-77
2021/09/30 15:03:50;;;;;;;0.28;0.28;;;;;;;16.89;35.02;99723.69;4984048;28;20026;-77
2021/09/30 15:06:16;;;;;;;0.10;0.10;;;;;;;16.68;34.62;99727.72;4976424;28;20041;-77
2021/09/30 15:08:41;;;;;;;0.38;0.38;;;;;;;16.67;35.08;99715.53;4984019;28;20026;-77
2021/09/30 15:11:07;;;;;;;0.20;0.20;;;;;;;16.48;35.04;99716.91;4975913;28;20027;-77
2021/09/30 15:13:33;;;;;;;0.32;0.32;;;;;;;16.59;35.52;99714.91;4983629;28;20031;-77
2021/09/30 15:16:00;;;;;;;0.10;0.10;;;;;;;16.42;35.59;99699.63;4981454;28;20031;-77
2021/09/30 15:19:17;;;;;;;0.20;0.20;;;;;;;16.47;35.22;99702.13;4977137;28;20085;-77
2021/09/30 15:21:20;;;;;;;0.25;0.20;;;;;;;16.34;35.17;99703.34;4984353;28;20030;-77
2021/09/30 15:23:46;;;;;;;0.25;0.25;;;;;;;16.13;35.44;99703.03;4980727;28;20027;-77
2021/09/30 15:26:16;;;;;;;0.20;0.20;;;;;;;16.34;36.02;99695.50;4973922;28;20405;-77
2021/09/30 15:28:42;;;;;;;1.38;0.40;;;;;;;16.04;35.24;99690.19;4974890;28;20029;-77
2021/09/30 15:31:07;;;;;;;0.45;0.20;;;;;;;16.06;35.65;99684.94;4977409;28;20395;-77
2021/09/30 15:33:33;;;;;;;0.13;0.13;;;;;;;16.42;37.03;99688.31;4974462;28;20030;-77
2021/09/30 15:35:59;;;;;;;0.10;0.10;;;;;;;16.34;36.11;99690.28;4975804;28;20026;-77
2021/09/30 15:38:26;;;;;;;0.28;0.28;;;;;;;16.24;36.30;99683.56;4973753;28;20077;-77
2021/09/30 15:40:55;;;;;;;0.17;0.17;;;;;;;16.06;36.09;99685.78;4976106;28;20027;-77
2021/09/30 15:43:22;;;;;;;0.20;0.20;;;;;;;15.88;38.76;99683.63;4976525;28;20060;-77
2021/09/30 15:45:47;;;;;;;0.20;0.20;;;;;;;15.84;38.34;99679.38;4980235;28;20058;-77
2021/09/30 15:48:13;;;;;;;0.10;0.10;;;;;;;15.92;36.54;99677.44;4973164;28;20480;-77
2021/09/30 15:50:38;;;;;;;0.10;0.10;;;;;;;15.55;36.85;99678.28;4974572;28;20030;-77
2021/09/30 15:53:04;;;;;;;0.15;0.15;;;;;;;15.79;38.33;99681.25;4979344;28;20069;-77
2021/09/30 15:55:29;;;;;;;0.40;0.40;;;;;;;15.79;37.52;99682.09;4978759;28;20526;-77
2021/09/30 15:57:54;;;;;;;0.20;0.20;;;;;;;15.87;37.65;99679.31;4975452;28;20077;-77
2021/09/30 16:00:20;;;;;;;0.40;0.40;;;;;;;15.66;37.35;99681.56;4974353;28;20027;-77
2021/09/30 16:02:46;;;;;;;0.20;0.20;;;;;;;15.69;39.02;99675.38;4984444;28;20109;-75